sensor_id;sensor_type;location;lat;lon;timestamp;temperature;humidity
4757;DHT22;2392;52.578;13.426;2023-06-10T00:01:38;17.30;99.90
4757;DHT22;2392;52.578;13.426;2023-06-10T00:04:06;17.20;99.90
4757;DHT22;2392;52.578;13.426;2023-06-10T00:06:33;17.20;99.90
4757;DHT22;2392;52.578;13.426;2023-06-10T00:09:02;17.20;99.90
4757;DHT22;2392;52.578;13.426;2023-06-10T00:11:31;17.10;99.90
4757;DHT22;2392;52.578;13.426;2023-06-10T00:13:58;17.10;99.90
4757;DHT22;2392;52.578;13.426;2023-06-10T00:16:25;17.10;99.90
4757;DHT22;2392;52.578;13.426;2023-06-10T00:18:53;17.10;99.90
4757;DHT22;2392;52.578;13.426;2023-06-10T00:21:27;17.10;99.90
4757;DHT22;2392;52.578;13.426;2023-06-10T00:23:54;17.00;99.90
4757;DHT22;2392;52.578;13.426;2023-06-10T00:26:22;17.00;99.90
4757;DHT22;2392;52.578;13.426;2023-06-10T00:28:49;17.00;99.90
4757;DHT22;2392;52.578;13.426;2023-06-10T00:31:16;17.00;99.90
4757;DHT22;2392;52.578;13.426;2023-06-10T00:33:43;17.00;99.90
4757;DHT22;2392;52.578;13.426;2023-06-10T00:36:10;17.00;99.90
4757;DHT22;2392;52.578;13.426;2023-06-10T00:38:39;17.00;99.90
4757;DHT22;2392;52.578;13.426;2023-06-10T00:41:08;16.90;99.90
4757;DHT22;2392;52.578;13.426;2023-06-10T00:43:35;16.90;99.90
4757;DHT22;2392;52.578;13.426;2023-06-10T00:46:02;16.90;99.90
4757;DHT22;2392;52.578;13.426;2023-06-10T00:48:30;16.80;99.90
4757;DHT22;2392;52.578;13.426;2023-06-10T00:50:57;16.80;99.90
4757;DHT22;2392;52.578;13.426;2023-06-10T00:53:25;16.80;99.90
4757;DHT22;2392;52.578;13.426;2023-06-10T00:55:53;16.70;99.90
4757;DHT22;2392;52.578;13.426;2023-06-10T00:58:21;16.70;99.90
4757;DHT22;2392;52.578;13.426;2023-06-10T01:00:48;16.70;99.90
4757;DHT22;2392;52.578;13.426;2023-06-10T01:03:17;16.60;99.90
4757;DHT22;2392;52.578;13.426;2023-06-10T01:05:44;16.60;99.90
4757;DHT22;2392;52.578;13.426;2023-06-10T01:08:22;16.60;99.90
4757;DHT22;2392;52.578;13.426;2023-06-10T01:10:59;16.60;99.90
4757;DHT22;2392;52.578;13.426;2023-06-10T01:13:28;16.60;99.90
4757;DHT22;2392;52.578;13.426;2023-06-10T01:15:57;16.50;99.90
4757;DHT22;2392;52.578;13.426;2023-06-10T01:18:29;16.50;99.90
4757;DHT22;2392;52.578;13.426;2023-06-10T01:20:57;16.50;99.90
4757;DHT22;2392;52.578;13.426;2023-06-10T01:23:26;16.50;99.90
4757;DHT22;2392;52.578;13.426;2023-06-10T01:25:57;16.50;99.90
4757;DHT22;2392;52.578;13.426;2023-06-10T01:28:31;16.50;99.90
4757;DHT22;2392;52.578;13.426;2023-06-10T01:31:08;16.40;99.90
4757;DHT22;2392;52.578;13.426;2023-06-10T01:33:41;16.40;99.90
4757;DHT22;2392;52.578;13.426;2023-06-10T01:36:09;16.40;99.90
4757;DHT22;2392;52.578;13.426;2023-06-10T01:38:41;16.40;99.90
4757;DHT22;2392;52.578;13.426;2023-06-10T01:41:09;16.30;99.90
4757;DHT22;2392;52.578;13.426;2023-06-10T01:43:38;16.30;99.90
4757;DHT22;2392;52.578;13.426;2023-06-10T01:46:06;16.30;99.90
4757;DHT22;2392;52.578;13.426;2023-06-10T01:48:33;16.30;99.90
4757;DHT22;2392;52.578;13.426;2023-06-10T01:51:00;16.30;99.90
4757;DHT22;2392;52.578;13.426;2023-06-10T01:53:27;16.20;99.90
4757;DHT22;2392;52.578;13.426;2023-06-10T01:55:55;16.20;99.90
4757;DHT22;2392;52.578;13.426;2023-06-10T01:58:22;16.20;99.90
4757;DHT22;2392;52.578;13.426;2023-06-10T02:00:50;16.10;99.90
4757;DHT22;2392;52.578;13.426;2023-06-10T02:03:17;16.10;99.90
4757;DHT22;2392;52.578;13.426;2023-06-10T02:05:44;16.10;99.90
4757;DHT22;2392;52.578;13.426;2023-06-10T02:08:11;16.10;99.90
4757;DHT22;2392;52.578;13.426;2023-06-10T02:10:38;16.10;99.90
4757;DHT22;2392;52.578;13.426;2023-06-10T02:13:07;16.10;99.90
4757;DHT22;2392;52.578;13.426;2023-06-10T02:15:34;16.10;99.90
4757;DHT22;2392;52.578;13.426;2023-06-10T02:18:01;16.10;99.90
4757;DHT22;2392;52.578;13.426;2023-06-10T02:20:28;16.00;99.90
4757;DHT22;2392;52.578;13.426;2023-06-10T02:22:56;16.00;99.90
4757;DHT22;2392;52.578;13.426;2023-06-10T02:25:23;16.00;99.90
4757;DHT22;2392;52.578;13.426;2023-06-10T02:27:50;16.00;99.90
4757;DHT22;2392;52.578;13.426;2023-06-10T02:30:18;15.90;99.90
4757;DHT22;2392;52.578;13.426;2023-06-10T02:32:45;15.90;99.90
4757;DHT22;2392;52.578;13.426;2023-06-10T02:35:14;15.90;99.90
4757;DHT22;2392;52.578;13.426;2023-06-10T02:37:43;15.80;99.90
4757;DHT22;2392;52.578;13.426;2023-06-10T02:40:11;15.80;99.90
4757;DHT22;2392;52.578;13.426;2023-06-10T02:42:38;15.80;99.90
4757;DHT22;2392;52.578;13.426;2023-06-10T02:45:07;15.80;99.90
4757;DHT22;2392;52.578;13.426;2023-06-10T02:47:41;15.80;99.90
4757;DHT22;2392;52.578;13.426;2023-06-10T02:50:09;15.80;99.90
4757;DHT22;2392;52.578;13.426;2023-06-10T02:52:56;15.80;99.90
4757;DHT22;2392;52.578;13.426;2023-06-10T02:55:23;15.70;99.90
4757;DHT22;2392;52.578;13.426;2023-06-10T02:57:55;15.70;99.90
4757;DHT22;2392;52.578;13.426;2023-06-10T03:00:22;15.70;99.90
4757;DHT22;2392;52.578;13.426;2023-06-10T03:02:52;15.70;99.90
4757;DHT22;2392;52.578;13.426;2023-06-10T03:05:27;15.60;99.90
4757;DHT22;2392;52.578;13.426;2023-06-10T03:07:57;15.70;99.90
4757;DHT22;2392;52.578;13.426;2023-06-10T03:10:24;15.60;99.90
4757;DHT22;2392;52.578;13.426;2023-06-10T03:12:52;15.60;99.90
4757;DHT22;2392;52.578;13.426;2023-06-10T03:15:20;15.60;99.90
4757;DHT22;2392;52.578;13.426;2023-06-10T03:17:48;15.70;99.90
4757;DHT22;2392;52.578;13.426;2023-06-10T03:20:17;15.60;99.90
4757;DHT22;2392;52.578;13.426;2023-06-10T03:22:45;15.60;99.90
4757;DHT22;2392;52.578;13.426;2023-06-10T03:25:12;15.60;99.90
4757;DHT22;2392;52.578;13.426;2023-06-10T03:27:43;15.60;99.90
4757;DHT22;2392;52.578;13.426;2023-06-10T03:30:12;15.60;99.90
4757;DHT22;2392;52.578;13.426;2023-06-10T03:32:40;15.60;99.90
4757;DHT22;2392;52.578;13.426;2023-06-10T03:35:08;15.60;99.90
4757;DHT22;2392;52.578;13.426;2023-06-10T03:37:38;15.60;99.90
4757;DHT22;2392;52.578;13.426;2023-06-10T03:40:06;15.60;99.90
4757;DHT22;2392;52.578;13.426;2023-06-10T03:42:35;15.60;99.90
4757;DHT22;2392;52.578;13.426;2023-06-10T03:45:02;15.70;99.90
4757;DHT22;2392;52.578;13.426;2023-06-10T03:47:33;15.70;99.90
4757;DHT22;2392;52.578;13.426;2023-06-10T03:50:03;15.70;99.90
4757;DHT22;2392;52.578;13.426;2023-06-10T03:52:31;15.70;99.90
4757;DHT22;2392;52.578;13.426;2023-06-10T03:55:00;15.70;99.90
4757;DHT22;2392;52.578;13.426;2023-06-10T03:57:27;15.70;99.90
4757;DHT22;2392;52.578;13.426;2023-06-10T03:59:54;15.70;99.90
4757;DHT22;2392;52.578;13.426;2023-06-10T04:02:22;15.70;99.90
4757;DHT22;2392;52.578;13.426;2023-06-10T04:04:49;15.70;99.90
4757;DHT22;2392;52.578;13.426;2023-06-10T04:07:17;15.70;99.90
4757;DHT22;2392;52.578;13.426;2023-06-10T04:09:46;15.70;99.90
4757;DHT22;2392;52.578;13.426;2023-06-10T04:12:15;15.70;99.90
4757;DHT22;2392;52.578;13.426;2023-06-10T04:14:42;15.70;99.90
4757;DHT22;2392;52.578;13.426;2023-06-10T04:17:11;15.70;99.90
4757;DHT22;2392;52.578;13.426;2023-06-10T04:19:38;15.80;99.90
4757;DHT22;2392;52.578;13.426;2023-06-10T04:22:06;15.80;99.90
4757;DHT22;2392;52.578;13.426;2023-06-10T04:24:33;15.80;99.90
4757;DHT22;2392;52.578;13.426;2023-06-10T04:27:01;15.80;99.90
4757;DHT22;2392;52.578;13.426;2023-06-10T04:29:30;15.90;99.90
4757;DHT22;2392;52.578;13.426;2023-06-10T04:31:57;15.90;99.90
4757;DHT22;2392;52.578;13.426;2023-06-10T04:34:26;15.90;99.90
4757;DHT22;2392;52.578;13.426;2023-06-10T04:36:55;15.90;99.90
4757;DHT22;2392;52.578;13.426;2023-06-10T04:39:22;16.00;99.90
4757;DHT22;2392;52.578;13.426;2023-06-10T04:41:50;16.00;99.90
4757;DHT22;2392;52.578;13.426;2023-06-10T04:44:18;16.00;99.90
4757;DHT22;2392;52.578;13.426;2023-06-10T04:46:46;16.00;99.90
4757;DHT22;2392;52.578;13.426;2023-06-10T04:49:13;16.10;99.90
4757;DHT22;2392;52.578;13.426;2023-06-10T04:51:41;16.10;99.90
4757;DHT22;2392;52.578;13.426;2023-06-10T04:54:08;16.10;99.90
4757;DHT22;2392;52.578;13.426;2023-06-10T04:56:35;16.10;99.90
4757;DHT22;2392;52.578;13.426;2023-06-10T04:59:02;16.10;99.90
4757;DHT22;2392;52.578;13.426;2023-06-10T05:01:29;16.20;99.90
4757;DHT22;2392;52.578;13.426;2023-06-10T05:03:58;16.20;99.90
4757;DHT22;2392;52.578;13.426;2023-06-10T05:06:25;16.20;99.90
4757;DHT22;2392;52.578;13.426;2023-06-10T05:08:52;16.20;99.90
4757;DHT22;2392;52.578;13.426;2023-06-10T05:11:18;16.30;99.90
4757;DHT22;2392;52.578;13.426;2023-06-10T05:13:45;16.30;99.90
4757;DHT22;2392;52.578;13.426;2023-06-10T05:16:12;16.30;99.90
4757;DHT22;2392;52.578;13.426;2023-06-10T05:18:40;16.40;99.90
4757;DHT22;2392;52.578;13.426;2023-06-10T05:21:09;16.50;99.90
4757;DHT22;2392;52.578;13.426;2023-06-10T05:23:36;16.50;99.90
4757;DHT22;2392;52.578;13.426;2023-06-10T05:26:03;16.60;99.90
4757;DHT22;2392;52.578;13.426;2023-06-10T05:28:30;16.70;99.90
4757;DHT22;2392;52.578;13.426;2023-06-10T05:30:57;16.70;99.90
4757;DHT22;2392;52.578;13.426;2023-06-10T05:33:24;16.90;99.90
4757;DHT22;2392;52.578;13.426;2023-06-10T05:35:51;16.90;99.90
4757;DHT22;2392;52.578;13.426;2023-06-10T05:38:19;17.10;99.90
4757;DHT22;2392;52.578;13.426;2023-06-10T05:40:46;17.20;99.90
4757;DHT22;2392;52.578;13.426;2023-06-10T05:43:13;17.30;99.90
4757;DHT22;2392;52.578;13.426;2023-06-10T05:45:42;17.40;99.90
4757;DHT22;2392;52.578;13.426;2023-06-10T05:48:09;17.50;99.90
4757;DHT22;2392;52.578;13.426;2023-06-10T05:50:36;17.60;99.90
4757;DHT22;2392;52.578;13.426;2023-06-10T05:53:05;17.70;99.90
4757;DHT22;2392;52.578;13.426;2023-06-10T05:55:35;17.70;99.90
4757;DHT22;2392;52.578;13.426;2023-06-10T05:58:02;17.80;99.90
4757;DHT22;2392;52.578;13.426;2023-06-10T06:00:29;17.80;99.90
4757;DHT22;2392;52.578;13.426;2023-06-10T06:02:56;17.80;99.90
4757;DHT22;2392;52.578;13.426;2023-06-10T06:05:24;17.80;99.90
4757;DHT22;2392;52.578;13.426;2023-06-10T06:07:51;17.90;99.90
4757;DHT22;2392;52.578;13.426;2023-06-10T06:10:18;17.90;99.90
4757;DHT22;2392;52.578;13.426;2023-06-10T06:12:47;18.00;99.90
4757;DHT22;2392;52.578;13.426;2023-06-10T06:15:14;18.00;99.90
4757;DHT22;2392;52.578;13.426;2023-06-10T06:17:41;18.10;99.90
4757;DHT22;2392;52.578;13.426;2023-06-10T06:20:08;18.20;99.90
4757;DHT22;2392;52.578;13.426;2023-06-10T06:22:35;18.20;99.90
4757;DHT22;2392;52.578;13.426;2023-06-10T06:25:02;18.20;99.90
4757;DHT22;2392;52.578;13.426;2023-06-10T06:27:29;18.30;99.90
4757;DHT22;2392;52.578;13.426;2023-06-10T06:29:58;18.30;99.90
4757;DHT22;2392;52.578;13.426;2023-06-10T06:32:25;18.40;99.90
4757;DHT22;2392;52.578;13.426;2023-06-10T06:34:53;18.40;99.90
4757;DHT22;2392;52.578;13.426;2023-06-10T06:37:21;18.50;99.90
4757;DHT22;2392;52.578;13.426;2023-06-10T06:39:49;18.60;99.90
4757;DHT22;2392;52.578;13.426;2023-06-10T06:42:16;18.70;99.90
4757;DHT22;2392;52.578;13.426;2023-06-10T06:45:02;18.70;99.90
4757;DHT22;2392;52.578;13.426;2023-06-10T06:47:29;18.80;99.90
4757;DHT22;2392;52.578;13.426;2023-06-10T06:49:56;18.90;99.90
4757;DHT22;2392;52.578;13.426;2023-06-10T06:52:23;18.90;99.90
4757;DHT22;2392;52.578;13.426;2023-06-10T06:54:50;19.10;99.90
4757;DHT22;2392;52.578;13.426;2023-06-10T06:57:17;19.10;99.90
4757;DHT22;2392;52.578;13.426;2023-06-10T06:59:44;19.20;99.90
4757;DHT22;2392;52.578;13.426;2023-06-10T07:02:12;19.30;99.90
4757;DHT22;2392;52.578;13.426;2023-06-10T07:04:39;19.50;99.90
4757;DHT22;2392;52.578;13.426;2023-06-10T07:07:07;19.60;99.90
4757;DHT22;2392;52.578;13.426;2023-06-10T07:09:35;19.70;99.90
4757;DHT22;2392;52.578;13.426;2023-06-10T07:12:03;19.80;99.90
4757;DHT22;2392;52.578;13.426;2023-06-10T07:14:31;20.00;99.90
4757;DHT22;2392;52.578;13.426;2023-06-10T07:16:58;20.10;99.90
4757;DHT22;2392;52.578;13.426;2023-06-10T07:19:26;20.20;99.90
4757;DHT22;2392;52.578;13.426;2023-06-10T07:21:53;20.30;99.90
4757;DHT22;2392;52.578;13.426;2023-06-10T07:24:20;20.50;99.90
4757;DHT22;2392;52.578;13.426;2023-06-10T07:26:47;20.60;99.90
4757;DHT22;2392;52.578;13.426;2023-06-10T07:29:14;20.60;99.90
4757;DHT22;2392;52.578;13.426;2023-06-10T07:31:41;20.70;99.90
4757;DHT22;2392;52.578;13.426;2023-06-10T07:34:08;20.70;99.90
4757;DHT22;2392;52.578;13.426;2023-06-10T07:36:37;20.70;99.90
4757;DHT22;2392;52.578;13.426;2023-06-10T07:39:04;20.80;99.90
4757;DHT22;2392;52.578;13.426;2023-06-10T07:41:32;20.80;99.90
4757;DHT22;2392;52.578;13.426;2023-06-10T07:43:59;20.90;99.90
4757;DHT22;2392;52.578;13.426;2023-06-10T07:46:27;21.00;99.90
4757;DHT22;2392;52.578;13.426;2023-06-10T07:48:54;21.00;99.90
4757;DHT22;2392;52.578;13.426;2023-06-10T07:51:22;21.10;99.90
4757;DHT22;2392;52.578;13.426;2023-06-10T07:53:50;21.20;99.90
4757;DHT22;2392;52.578;13.426;2023-06-10T07:56:17;21.30;99.90
4757;DHT22;2392;52.578;13.426;2023-06-10T07:58:46;21.30;99.90
4757;DHT22;2392;52.578;13.426;2023-06-10T08:01:13;21.40;99.90
4757;DHT22;2392;52.578;13.426;2023-06-10T08:03:40;21.40;99.90
4757;DHT22;2392;52.578;13.426;2023-06-10T08:06:07;21.50;99.90
4757;DHT22;2392;52.578;13.426;2023-06-10T08:08:36;21.60;99.90
4757;DHT22;2392;52.578;13.426;2023-06-10T08:11:09;21.80;99.90
4757;DHT22;2392;52.578;13.426;2023-06-10T08:13:37;21.90;99.90
4757;DHT22;2392;52.578;13.426;2023-06-10T08:16:05;21.90;99.90
4757;DHT22;2392;52.578;13.426;2023-06-10T08:18:33;22.00;99.90
4757;DHT22;2392;52.578;13.426;2023-06-10T08:21:00;21.90;99.90
4757;DHT22;2392;52.578;13.426;2023-06-10T08:23:27;22.00;99.90
4757;DHT22;2392;52.578;13.426;2023-06-10T08:25:54;22.00;99.90
4757;DHT22;2392;52.578;13.426;2023-06-10T08:28:23;22.00;99.90
4757;DHT22;2392;52.578;13.426;2023-06-10T08:30:50;22.10;99.90
4757;DHT22;2392;52.578;13.426;2023-06-10T08:33:17;22.10;99.90
4757;DHT22;2392;52.578;13.426;2023-06-10T08:35:44;22.10;99.90
4757;DHT22;2392;52.578;13.426;2023-06-10T08:38:11;22.10;99.90
4757;DHT22;2392;52.578;13.426;2023-06-10T08:40:38;22.10;99.90
4757;DHT22;2392;52.578;13.426;2023-06-10T08:43:07;22.10;99.90
4757;DHT22;2392;52.578;13.426;2023-06-10T08:45:37;22.00;99.90
4757;DHT22;2392;52.578;13.426;2023-06-10T08:48:05;21.90;99.90
4757;DHT22;2392;52.578;13.426;2023-06-10T08:50:34;21.90;99.90
4757;DHT22;2392;52.578;13.426;2023-06-10T08:53:05;21.90;99.90
4757;DHT22;2392;52.578;13.426;2023-06-10T08:55:35;21.80;99.90
4757;DHT22;2392;52.578;13.426;2023-06-10T08:58:03;21.80;99.90
4757;DHT22;2392;52.578;13.426;2023-06-10T09:00:31;21.80;99.90
4757;DHT22;2392;52.578;13.426;2023-06-10T09:03:00;21.70;99.90
4757;DHT22;2392;52.578;13.426;2023-06-10T09:05:29;21.60;99.90
4757;DHT22;2392;52.578;13.426;2023-06-10T09:07:57;21.60;99.90
4757;DHT22;2392;52.578;13.426;2023-06-10T09:10:26;21.50;99.90
4757;DHT22;2392;52.578;13.426;2023-06-10T09:12:53;21.40;99.90
4757;DHT22;2392;52.578;13.426;2023-06-10T09:15:21;21.30;99.90
4757;DHT22;2392;52.578;13.426;2023-06-10T09:17:48;21.20;99.90
4757;DHT22;2392;52.578;13.426;2023-06-10T09:20:17;21.20;99.90
4757;DHT22;2392;52.578;13.426;2023-06-10T09:22:44;21.10;99.90
4757;DHT22;2392;52.578;13.426;2023-06-10T09:25:12;21.00;99.90
4757;DHT22;2392;52.578;13.426;2023-06-10T09:27:47;20.90;99.90
4757;DHT22;2392;52.578;13.426;2023-06-10T09:30:25;20.90;99.90
4757;DHT22;2392;52.578;13.426;2023-06-10T09:32:53;20.80;99.90
4757;DHT22;2392;52.578;13.426;2023-06-10T09:35:23;20.70;99.90
4757;DHT22;2392;52.578;13.426;2023-06-10T09:37:52;20.70;99.90
4757;DHT22;2392;52.578;13.426;2023-06-10T09:40:19;20.60;99.90
4757;DHT22;2392;52.578;13.426;2023-06-10T09:42:52;20.60;99.90
4757;DHT22;2392;52.578;13.426;2023-06-10T09:45:21;20.60;99.90
4757;DHT22;2392;52.578;13.426;2023-06-10T09:47:51;20.50;99.90
4757;DHT22;2392;52.578;13.426;2023-06-10T09:50:19;20.50;99.90
4757;DHT22;2392;52.578;13.426;2023-06-10T09:52:47;20.50;99.90
4757;DHT22;2392;52.578;13.426;2023-06-10T09:55:17;20.40;99.90
4757;DHT22;2392;52.578;13.426;2023-06-10T09:57:44;20.30;99.90
4757;DHT22;2392;52.578;13.426;2023-06-10T10:00:16;20.20;99.90
4757;DHT22;2392;52.578;13.426;2023-06-10T10:02:47;20.20;99.90
4757;DHT22;2392;52.578;13.426;2023-06-10T10:05:15;20.10;99.90
4757;DHT22;2392;52.578;13.426;2023-06-10T10:07:43;20.20;99.90
4757;DHT22;2392;52.578;13.426;2023-06-10T10:10:13;20.20;99.90
4757;DHT22;2392;52.578;13.426;2023-06-10T10:12:41;20.30;99.90
4757;DHT22;2392;52.578;13.426;2023-06-10T10:15:10;20.30;99.90
4757;DHT22;2392;52.578;13.426;2023-06-10T10:17:40;20.40;99.90
4757;DHT22;2392;52.578;13.426;2023-06-10T10:20:08;20.40;99.90
4757;DHT22;2392;52.578;13.426;2023-06-10T10:22:41;20.50;99.90
4757;DHT22;2392;52.578;13.426;2023-06-10T10:25:13;20.60;99.90
4757;DHT22;2392;52.578;13.426;2023-06-10T10:27:44;20.60;99.90
4757;DHT22;2392;52.578;13.426;2023-06-10T10:30:17;20.70;99.90
4757;DHT22;2392;52.578;13.426;2023-06-10T10:32:56;20.70;99.90
4757;DHT22;2392;52.578;13.426;2023-06-10T10:35:23;20.70;99.90
4757;DHT22;2392;52.578;13.426;2023-06-10T10:37:52;20.80;99.90
4757;DHT22;2392;52.578;13.426;2023-06-10T10:40:21;20.70;99.90
4757;DHT22;2392;52.578;13.426;2023-06-10T10:42:49;20.70;99.90
4757;DHT22;2392;52.578;13.426;2023-06-10T10:45:16;20.70;99.90
4757;DHT22;2392;52.578;13.426;2023-06-10T10:47:45;20.60;99.90
4757;DHT22;2392;52.578;13.426;2023-06-10T10:50:14;20.60;99.90
4757;DHT22;2392;52.578;13.426;2023-06-10T10:52:54;20.60;99.90
4757;DHT22;2392;52.578;13.426;2023-06-10T10:55:23;20.50;99.90
4757;DHT22;2392;52.578;13.426;2023-06-10T10:57:55;20.50;99.90
4757;DHT22;2392;52.578;13.426;2023-06-10T11:00:27;20.50;99.90
4757;DHT22;2392;52.578;13.426;2023-06-10T11:02:58;20.50;99.90
4757;DHT22;2392;52.578;13.426;2023-06-10T11:05:37;20.40;99.90
4757;DHT22;2392;52.578;13.426;2023-06-10T11:08:05;20.50;99.90
4757;DHT22;2392;52.578;13.426;2023-06-10T11:10:34;20.50;99.90
4757;DHT22;2392;52.578;13.426;2023-06-10T11:13:07;20.50;99.90
4757;DHT22;2392;52.578;13.426;2023-06-10T11:15:39;20.50;99.90
4757;DHT22;2392;52.578;13.426;2023-06-10T11:20:55;20.70;99.90
4757;DHT22;2392;52.578;13.426;2023-06-10T11:23:34;20.90;99.90
4757;DHT22;2392;52.578;13.426;2023-06-10T11:26:17;21.00;99.90
4757;DHT22;2392;52.578;13.426;2023-06-10T11:29:06;21.30;99.90
4757;DHT22;2392;52.578;13.426;2023-06-10T11:31:39;21.60;99.90
4757;DHT22;2392;52.578;13.426;2023-06-10T11:34:07;22.00;99.90
4757;DHT22;2392;52.578;13.426;2023-06-10T11:36:37;22.30;99.90
4757;DHT22;2392;52.578;13.426;2023-06-10T11:39:06;22.50;99.90
4757;DHT22;2392;52.578;13.426;2023-06-10T11:41:36;22.70;99.90
4757;DHT22;2392;52.578;13.426;2023-06-10T11:44:07;22.80;99.90
4757;DHT22;2392;52.578;13.426;2023-06-10T11:46:34;22.90;99.90
4757;DHT22;2392;52.578;13.426;2023-06-10T11:49:02;23.10;99.90
4757;DHT22;2392;52.578;13.426;2023-06-10T11:51:32;23.30;99.90
4757;DHT22;2392;52.578;13.426;2023-06-10T11:53:59;23.40;99.90
4757;DHT22;2392;52.578;13.426;2023-06-10T11:56:27;23.50;99.90
4757;DHT22;2392;52.578;13.426;2023-06-10T11:58:57;23.70;99.90
4757;DHT22;2392;52.578;13.426;2023-06-10T12:01:26;23.80;99.90
4757;DHT22;2392;52.578;13.426;2023-06-10T12:03:58;23.90;99.90
4757;DHT22;2392;52.578;13.426;2023-06-10T12:06:25;24.10;99.90
4757;DHT22;2392;52.578;13.426;2023-06-10T12:08:53;24.10;99.90
4757;DHT22;2392;52.578;13.426;2023-06-10T12:11:21;24.20;99.90
4757;DHT22;2392;52.578;13.426;2023-06-10T12:13:49;24.30;99.90
4757;DHT22;2392;52.578;13.426;2023-06-10T12:16:18;24.50;99.90
4757;DHT22;2392;52.578;13.426;2023-06-10T12:18:46;24.60;99.90
4757;DHT22;2392;52.578;13.426;2023-06-10T12:21:19;24.70;99.90
4757;DHT22;2392;52.578;13.426;2023-06-10T12:24:03;24.80;99.90
4757;DHT22;2392;52.578;13.426;2023-06-10T12:26:38;25.00;99.90
4757;DHT22;2392;52.578;13.426;2023-06-10T12:29:27;25.10;99.90
4757;DHT22;2392;52.578;13.426;2023-06-10T12:32:00;25.30;99.90
4757;DHT22;2392;52.578;13.426;2023-06-10T12:34:39;25.50;99.90
4757;DHT22;2392;52.578;13.426;2023-06-10T12:37:10;25.60;99.90
4757;DHT22;2392;52.578;13.426;2023-06-10T12:39:39;25.80;99.90
4757;DHT22;2392;52.578;13.426;2023-06-10T12:42:08;26.00;99.90
4757;DHT22;2392;52.578;13.426;2023-06-10T12:44:39;26.10;99.90
4757;DHT22;2392;52.578;13.426;2023-06-10T12:47:10;26.30;99.90
4757;DHT22;2392;52.578;13.426;2023-06-10T12:49:39;26.40;99.90
4757;DHT22;2392;52.578;13.426;2023-06-10T12:52:15;26.50;99.90
4757;DHT22;2392;52.578;13.426;2023-06-10T12:54:42;26.50;99.90
4757;DHT22;2392;52.578;13.426;2023-06-10T12:57:09;26.60;99.90
4757;DHT22;2392;52.578;13.426;2023-06-10T12:59:36;26.70;99.90
4757;DHT22;2392;52.578;13.426;2023-06-10T13:02:03;26.80;99.90
4757;DHT22;2392;52.578;13.426;2023-06-10T13:04:32;26.90;99.90
4757;DHT22;2392;52.578;13.426;2023-06-10T13:06:59;27.10;99.90
4757;DHT22;2392;52.578;13.426;2023-06-10T13:09:26;27.20;99.90
4757;DHT22;2392;52.578;13.426;2023-06-10T13:11:54;27.40;99.40
4757;DHT22;2392;52.578;13.426;2023-06-10T13:14:21;27.60;99.00
4757;DHT22;2392;52.578;13.426;2023-06-10T13:16:48;27.80;98.70
4757;DHT22;2392;52.578;13.426;2023-06-10T13:19:15;28.10;98.00
4757;DHT22;2392;52.578;13.426;2023-06-10T13:21:44;28.20;97.30
4757;DHT22;2392;52.578;13.426;2023-06-10T13:24:11;28.40;96.90
4757;DHT22;2392;52.578;13.426;2023-06-10T13:26:38;28.30;96.70
4757;DHT22;2392;52.578;13.426;2023-06-10T13:29:05;28.30;96.40
4757;DHT22;2392;52.578;13.426;2023-06-10T13:31:33;28.20;96.30
4757;DHT22;2392;52.578;13.426;2023-06-10T13:34:00;28.20;95.90
4757;DHT22;2392;52.578;13.426;2023-06-10T13:36:27;28.10;95.50
4757;DHT22;2392;52.578;13.426;2023-06-10T13:38:56;28.10;95.50
4757;DHT22;2392;52.578;13.426;2023-06-10T13:41:23;28.10;95.80
4757;DHT22;2392;52.578;13.426;2023-06-10T13:43:50;28.40;95.40
4757;DHT22;2392;52.578;13.426;2023-06-10T13:46:17;28.90;94.60
4757;DHT22;2392;52.578;13.426;2023-06-10T13:48:44;29.30;93.60
4757;DHT22;2392;52.578;13.426;2023-06-10T13:51:11;29.70;93.60
4757;DHT22;2392;52.578;13.426;2023-06-10T13:53:38;30.00;92.70
4757;DHT22;2392;52.578;13.426;2023-06-10T13:56:06;30.00;92.20
4757;DHT22;2392;52.578;13.426;2023-06-10T13:58:33;30.00;92.20
4757;DHT22;2392;52.578;13.426;2023-06-10T14:01:06;29.80;91.80
4757;DHT22;2392;52.578;13.426;2023-06-10T14:03:33;29.70;92.60
4757;DHT22;2392;52.578;13.426;2023-06-10T14:06:00;29.50;91.50
4757;DHT22;2392;52.578;13.426;2023-06-10T14:08:27;29.30;91.70
4757;DHT22;2392;52.578;13.426;2023-06-10T14:10:55;29.20;92.10
4757;DHT22;2392;52.578;13.426;2023-06-10T14:13:23;29.00;92.40
4757;DHT22;2392;52.578;13.426;2023-06-10T14:15:50;28.90;92.20
4757;DHT22;2392;52.578;13.426;2023-06-10T14:18:18;28.80;91.10
4757;DHT22;2392;52.578;13.426;2023-06-10T14:20:45;28.60;88.60
4757;DHT22;2392;52.578;13.426;2023-06-10T14:23:12;28.60;89.10
4757;DHT22;2392;52.578;13.426;2023-06-10T14:25:39;28.50;89.30
4757;DHT22;2392;52.578;13.426;2023-06-10T14:28:06;28.40;88.30
4757;DHT22;2392;52.578;13.426;2023-06-10T14:30:34;28.30;88.40
4757;DHT22;2392;52.578;13.426;2023-06-10T14:33:01;28.20;88.20
4757;DHT22;2392;52.578;13.426;2023-06-10T14:35:28;28.20;88.60
4757;DHT22;2392;52.578;13.426;2023-06-10T14:37:55;28.20;89.80
4757;DHT22;2392;52.578;13.426;2023-06-10T14:40:22;28.20;88.80
4757;DHT22;2392;52.578;13.426;2023-06-10T14:42:51;28.20;87.20
4757;DHT22;2392;52.578;13.426;2023-06-10T14:45:18;28.20;86.70
4757;DHT22;2392;52.578;13.426;2023-06-10T14:47:46;28.20;86.80
4757;DHT22;2392;52.578;13.426;2023-06-10T14:50:14;28.10;86.00
4757;DHT22;2392;52.578;13.426;2023-06-10T14:52:41;28.10;86.60
4757;DHT22;2392;52.578;13.426;2023-06-10T14:55:08;28.20;85.30
4757;DHT22;2392;52.578;13.426;2023-06-10T14:57:35;28.30;83.90
4757;DHT22;2392;52.578;13.426;2023-06-10T15:00:03;28.50;83.70
4757;DHT22;2392;52.578;13.426;2023-06-10T15:02:30;28.50;82.50
4757;DHT22;2392;52.578;13.426;2023-06-10T15:04:58;28.60;81.40
4757;DHT22;2392;52.578;13.426;2023-06-10T15:07:25;28.60;80.80
4757;DHT22;2392;52.578;13.426;2023-06-10T15:09:52;28.60;80.80
4757;DHT22;2392;52.578;13.426;2023-06-10T15:12:19;28.60;80.50
4757;DHT22;2392;52.578;13.426;2023-06-10T15:14:46;28.50;81.40
4757;DHT22;2392;52.578;13.426;2023-06-10T15:17:13;28.60;81.90
4757;DHT22;2392;52.578;13.426;2023-06-10T15:19:40;28.60;81.00
4757;DHT22;2392;52.578;13.426;2023-06-10T15:22:08;28.70;80.90
4757;DHT22;2392;52.578;13.426;2023-06-10T15:24:37;28.60;80.80
4757;DHT22;2392;52.578;13.426;2023-06-10T15:27:04;28.50;79.00
4757;DHT22;2392;52.578;13.426;2023-06-10T15:29:32;28.40;78.90
4757;DHT22;2392;52.578;13.426;2023-06-10T15:31:59;28.30;79.40
4757;DHT22;2392;52.578;13.426;2023-06-10T15:34:26;28.20;79.70
4757;DHT22;2392;52.578;13.426;2023-06-10T15:36:53;28.10;80.50
4757;DHT22;2392;52.578;13.426;2023-06-10T15:39:21;27.90;81.20
4757;DHT22;2392;52.578;13.426;2023-06-10T15:41:55;27.90;80.40
4757;DHT22;2392;52.578;13.426;2023-06-10T15:44:23;27.70;80.50
4757;DHT22;2392;52.578;13.426;2023-06-10T15:46:50;27.70;81.20
4757;DHT22;2392;52.578;13.426;2023-06-10T15:49:17;27.60;81.20
4757;DHT22;2392;52.578;13.426;2023-06-10T15:51:44;27.60;82.20
4757;DHT22;2392;52.578;13.426;2023-06-10T15:54:11;27.50;81.60
4757;DHT22;2392;52.578;13.426;2023-06-10T15:56:39;27.50;80.80